Аэропорт: Симферополь. Симферополь

ICAO: URFF

METAR:
2020-10-19 22:30:00
URFF 192230Z 13002MPS CAVOK 08/05 Q1026 R19/090095 NOSIG
METAR:
2020-10-19 19:53:00
TAF URFF 191953Z 1921/2021 15003MPS CAVOK TX14/2011Z TN06/2003Z